createdAt,value
2018-12-29T00:00:22.733Z,26.57
2018-12-29T00:02:52.065Z,25.20
2018-12-29T00:05:21.183Z,24.80
2018-12-29T00:07:50.613Z,25.73
2018-12-29T00:10:19.820Z,26.90
2018-12-29T00:12:49.483Z,26.23
2018-12-29T00:15:18.850Z,25.73
2018-12-29T00:17:48.091Z,26.33
2018-12-29T00:20:17.463Z,25.00
2018-12-29T00:22:46.629Z,25.10
2018-12-29T00:25:15.931Z,24.57
2018-12-29T00:27:46.051Z,26.33
2018-12-29T00:30:15.472Z,24.97
2018-12-29T00:32:44.789Z,23.77
2018-12-29T00:35:14.187Z,24.63
2018-12-29T00:37:43.566Z,24.40
2018-12-29T00:40:13.092Z,24.80
2018-12-29T00:42:42.299Z,24.90
2018-12-29T00:45:11.440Z,23.77
2018-12-29T00:47:40.680Z,25.30
2018-12-29T00:50:09.787Z,24.87
2018-12-29T00:52:39.149Z,26.07
2018-12-29T00:55:08.283Z,24.73
2018-12-29T00:57:37.393Z,23.63
2018-12-29T01:00:07.337Z,24.63
2018-12-29T01:02:36.437Z,23.03
2018-12-29T01:05:05.546Z,24.30
2018-12-29T01:07:34.689Z,23.73
2018-12-29T01:10:05.073Z,24.27
2018-12-29T01:12:34.444Z,22.27
2018-12-29T01:15:09.695Z,23.47
2018-12-29T01:17:34.593Z,24.33
2018-12-29T01:20:03.794Z,23.23
2018-12-29T01:22:33.041Z,22.97
2018-12-29T01:25:02.121Z,24.17
2018-12-29T01:27:31.264Z,24.33
2018-12-29T01:30:00.609Z,24.00
2018-12-29T01:32:29.741Z,24.07
2018-12-29T01:34:59.094Z,24.30
2018-12-29T01:37:28.457Z,24.50
2018-12-29T01:39:57.582Z,23.07
2018-12-29T01:42:26.711Z,24.33
2018-12-29T01:44:55.832Z,25.60
2018-12-29T01:47:25.251Z,24.47
2018-12-29T01:49:54.346Z,23.97
2018-12-29T01:52:23.719Z,25.20
2018-12-29T01:54:52.874Z,23.13
2018-12-29T01:57:41.425Z,25.67
2018-12-29T02:00:10.841Z,23.73
2018-12-29T02:02:39.940Z,22.87
2018-12-29T02:05:12.563Z,23.67
2018-12-29T02:07:41.774Z,22.67
2018-12-29T02:10:10.981Z,23.93
2018-12-29T02:12:40.941Z,24.23
2018-12-29T02:15:10.060Z,23.83
2018-12-29T02:17:39.762Z,25.63
2018-12-29T02:20:09.133Z,24.23
2018-12-29T02:22:38.252Z,24.77
2018-12-29T02:25:07.610Z,26.00
2018-12-29T02:27:36.750Z,24.10
2018-12-29T02:30:06.462Z,24.13
2018-12-29T02:32:35.904Z,24.23
2018-12-29T02:35:05.523Z,24.83
2018-12-29T02:37:34.712Z,24.47
2018-12-29T02:40:05.684Z,23.73
2018-12-29T02:42:34.933Z,24.00
2018-12-29T02:45:04.445Z,24.13
2018-12-29T02:47:33.707Z,22.70
2018-12-29T02:50:02.929Z,22.10
2018-12-29T02:52:32.980Z,23.20
2018-12-29T02:55:02.169Z,21.50
2018-12-29T02:57:31.335Z,22.83
2018-12-29T03:00:00.471Z,22.93
2018-12-29T03:02:29.595Z,22.10
2018-12-29T03:04:58.969Z,22.73
2018-12-29T03:07:28.334Z,22.63
2018-12-29T03:09:57.837Z,22.03
2018-12-29T03:12:26.942Z,20.83
2018-12-29T03:14:56.039Z,20.47
2018-12-29T03:17:25.530Z,20.60
2018-12-29T03:19:54.947Z,21.90
2018-12-29T03:22:24.239Z,21.37
2018-12-29T03:24:53.795Z,18.83
2018-12-29T03:27:23.236Z,20.70
2018-12-29T03:29:52.359Z,21.10
2018-12-29T03:32:21.704Z,21.77
2018-12-29T03:34:50.801Z,20.53
2018-12-29T03:37:19.936Z,20.80
2018-12-29T03:39:49.271Z,21.53
2018-12-29T03:42:18.752Z,21.00
2018-12-29T03:44:47.847Z,21.23
2018-12-29T03:47:17.225Z,21.43
2018-12-29T03:49:46.314Z,20.53
2018-12-29T03:52:15.478Z,20.60
2018-12-29T03:54:44.610Z,20.17
2018-12-29T03:57:14.057Z,19.97
2018-12-29T03:59:43.230Z,20.33
2018-12-29T04:02:12.492Z,21.17
2018-12-29T04:04:41.804Z,20.67
2018-12-29T04:07:11.169Z,22.50
2018-12-29T04:09:40.592Z,20.77
2018-12-29T04:12:13.033Z,22.37
2018-12-29T04:14:42.952Z,23.10
2018-12-29T04:17:12.400Z,21.30
2018-12-29T04:19:41.989Z,21.70
2018-12-29T04:22:11.924Z,21.57
2018-12-29T04:24:41.101Z,21.50
2018-12-29T04:27:10.651Z,20.40
2018-12-29T04:29:40.074Z,20.90
2018-12-29T04:32:10.514Z,21.37
2018-12-29T04:34:40.074Z,21.67
2018-12-29T04:37:09.255Z,20.80
2018-12-29T04:39:38.424Z,20.17
2018-12-29T04:42:07.635Z,20.93
2018-12-29T04:44:36.982Z,21.40
2018-12-29T04:47:06.426Z,20.63
2018-12-29T04:49:35.479Z,21.47
2018-12-29T04:52:04.645Z,20.30
2018-12-29T04:54:33.783Z,20.87
2018-12-29T04:57:03.158Z,21.77
2018-12-29T04:59:32.383Z,21.47
2018-12-29T05:02:01.740Z,20.30
2018-12-29T05:04:31.150Z,19.67
2018-12-29T05:07:00.650Z,19.87
2018-12-29T05:09:30.163Z,19.83
2018-12-29T05:11:59.314Z,21.10
2018-12-29T05:14:28.594Z,20.10
2018-12-29T05:16:58.046Z,19.70
2018-12-29T05:19:27.417Z,19.73
2018-12-29T05:21:56.543Z,22.53
2018-12-29T05:24:25.640Z,19.17
2018-12-29T05:26:54.749Z,21.27
2018-12-29T05:29:24.192Z,20.97
2018-12-29T05:31:53.285Z,20.30
2018-12-29T05:34:22.489Z,20.63
2018-12-29T05:36:51.896Z,20.23
2018-12-29T05:39:21.015Z,19.90
2018-12-29T05:41:50.425Z,20.30
2018-12-29T05:44:19.554Z,19.23
2018-12-29T05:46:48.683Z,19.73
2018-12-29T05:49:17.806Z,19.77
2018-12-29T05:51:47.155Z,20.13
2018-12-29T05:54:16.337Z,20.43
2018-12-29T05:56:45.430Z,20.07
2018-12-29T05:59:14.787Z,19.53
2018-12-29T06:01:43.982Z,18.70
2018-12-29T06:04:14.713Z,19.63
2018-12-29T06:06:44.074Z,19.93
2018-12-29T06:09:13.165Z,19.30
2018-12-29T06:11:42.543Z,19.37
2018-12-29T06:14:11.701Z,19.20
2018-12-29T06:16:41.096Z,18.73
2018-12-29T06:19:10.450Z,19.27
2018-12-29T06:21:39.545Z,19.50
2018-12-29T06:24:08.922Z,18.50
2018-12-29T06:26:38.046Z,18.73
2018-12-29T06:29:07.787Z,19.80
2018-12-29T06:31:36.885Z,18.20
2018-12-29T06:34:06.036Z,18.50
2018-12-29T06:36:35.544Z,17.37
2018-12-29T06:39:06.241Z,18.67
2018-12-29T06:41:35.343Z,18.63
2018-12-29T06:44:04.485Z,18.47
2018-12-29T06:46:35.108Z,18.50
2018-12-29T06:49:04.575Z,17.57
2018-12-29T06:51:33.756Z,18.40
2018-12-29T06:54:03.125Z,18.03
2018-12-29T06:56:32.260Z,18.57
2018-12-29T06:59:01.755Z,18.27
2018-12-29T07:01:31.399Z,19.97
2018-12-29T07:04:00.549Z,18.90
2018-12-29T07:06:29.739Z,19.33
2018-12-29T07:08:58.847Z,18.43
2018-12-29T07:11:28.292Z,18.37
2018-12-29T07:13:57.695Z,18.97
2018-12-29T07:16:28.468Z,18.00
2018-12-29T07:18:57.750Z,18.87
2018-12-29T07:21:26.893Z,20.20
2018-12-29T07:23:56.332Z,18.57
2018-12-29T07:26:25.454Z,19.70
2018-12-29T07:28:54.574Z,18.40
2018-12-29T07:31:23.938Z,19.67
2018-12-29T07:33:53.022Z,19.33
2018-12-29T07:36:22.406Z,19.67
2018-12-29T07:38:51.562Z,20.30
2018-12-29T07:41:21.239Z,20.47
2018-12-29T07:43:50.583Z,21.10
2018-12-29T07:46:19.753Z,20.83
2018-12-29T07:48:49.132Z,20.27
2018-12-29T07:51:18.258Z,20.53
2018-12-29T07:53:47.463Z,20.23
2018-12-29T07:56:16.997Z,19.53
2018-12-29T07:58:46.439Z,19.77
2018-12-29T08:01:15.534Z,18.93
2018-12-29T08:03:44.663Z,18.83
2018-12-29T08:06:13.815Z,20.40
2018-12-29T08:08:43.278Z,19.77
2018-12-29T08:11:12.714Z,18.93
2018-12-29T08:13:42.063Z,18.27
2018-12-29T08:16:11.764Z,18.57
2018-12-29T08:18:41.326Z,18.60
2018-12-29T08:21:10.490Z,17.30
2018-12-29T08:23:39.663Z,17.97
2018-12-29T08:26:09.094Z,16.70
2018-12-29T08:28:38.198Z,17.57
2018-12-29T08:31:09.037Z,16.67
2018-12-29T08:33:38.171Z,15.20
2018-12-29T08:36:07.528Z,16.70
2018-12-29T08:38:36.650Z,15.00
2018-12-29T08:41:05.750Z,16.60
2018-12-29T08:43:34.854Z,14.63
2018-12-29T08:46:04.209Z,16.23
2018-12-29T08:48:33.339Z,14.23
2018-12-29T08:51:02.949Z,14.33
2018-12-29T08:53:32.071Z,15.13
2018-12-29T08:56:01.270Z,15.40
2018-12-29T08:58:30.625Z,14.77
2018-12-29T09:00:59.753Z,13.80
2018-12-29T09:03:29.338Z,14.83
2018-12-29T09:05:58.697Z,15.40
2018-12-29T09:08:28.127Z,15.27
2018-12-29T09:10:57.215Z,13.77
2018-12-29T09:13:26.575Z,15.73
2018-12-29T09:15:55.695Z,15.53
2018-12-29T09:18:25.070Z,14.27
2018-12-29T09:20:54.167Z,15.20
2018-12-29T09:23:23.294Z,15.90
2018-12-29T09:25:52.645Z,15.13
2018-12-29T09:28:21.752Z,14.03
2018-12-29T09:30:50.884Z,13.80
2018-12-29T09:33:20.019Z,14.80
2018-12-29T09:35:49.117Z,12.93
2018-12-29T09:38:18.611Z,13.70
2018-12-29T09:40:47.997Z,12.93
2018-12-29T09:43:17.408Z,12.00
2018-12-29T09:45:46.847Z,12.00
2018-12-29T09:48:15.978Z,11.97
2018-12-29T09:50:45.576Z,11.30
2018-12-29T09:53:14.951Z,11.80
2018-12-29T09:55:44.199Z,12.57
2018-12-29T09:58:13.659Z,13.10
2018-12-29T10:00:43.329Z,12.73
2018-12-29T10:03:12.439Z,12.83
2018-12-29T10:05:42.410Z,13.47
2018-12-29T10:08:11.494Z,12.57
2018-12-29T10:10:40.735Z,12.60
2018-12-29T10:13:09.884Z,12.47
2018-12-29T10:15:39.241Z,12.50
2018-12-29T10:18:08.589Z,12.83
2018-12-29T10:20:57.017Z,11.50
2018-12-29T10:23:26.147Z,11.63
2018-12-29T10:25:55.247Z,12.87
2018-12-29T10:28:24.642Z,13.10
2018-12-29T10:30:53.741Z,13.80
2018-12-29T10:33:22.900Z,12.73
2018-12-29T10:35:52.551Z,12.87
2018-12-29T10:38:21.895Z,12.90
2018-12-29T10:40:51.003Z,11.93
2018-12-29T10:43:20.388Z,11.93
2018-12-29T10:45:49.494Z,13.67
2018-12-29T10:48:18.882Z,12.20
2018-12-29T10:50:48.279Z,11.63
2018-12-29T10:53:17.493Z,11.10
2018-12-29T10:55:46.635Z,11.97
2018-12-29T10:58:15.752Z,12.20
2018-12-29T11:00:45.191Z,10.90
2018-12-29T11:03:14.666Z,10.90
2018-12-29T11:05:43.752Z,10.97
2018-12-29T11:08:12.898Z,11.07
2018-12-29T11:10:42.031Z,10.60
2018-12-29T11:13:11.387Z,11.67
2018-12-29T11:15:40.738Z,11.00
2018-12-29T11:18:09.951Z,10.43
2018-12-29T11:20:39.142Z,11.17
2018-12-29T11:23:08.552Z,11.57
2018-12-29T11:25:37.913Z,10.77
2018-12-29T11:28:07.261Z,10.87
2018-12-29T11:30:36.729Z,11.03
2018-12-29T11:33:06.090Z,10.27
2018-12-29T11:35:35.262Z,10.73
2018-12-29T11:38:04.427Z,11.93
2018-12-29T11:40:33.596Z,13.63
2018-12-29T11:43:02.718Z,12.30
2018-12-29T11:45:31.889Z,13.43
2018-12-29T11:48:01.329Z,13.27
2018-12-29T11:50:30.688Z,13.03
2018-12-29T11:53:00.107Z,13.60
2018-12-29T11:55:29.849Z,11.43
2018-12-29T11:57:59.490Z,10.87
2018-12-29T12:00:28.692Z,9.90
2018-12-29T12:02:58.383Z,10.80
2018-12-29T12:05:27.740Z,9.83
2018-12-29T12:07:57.147Z,9.77
2018-12-29T12:10:26.346Z,10.23
2018-12-29T12:12:55.562Z,9.83
2018-12-29T12:15:24.699Z,9.20
2018-12-29T12:17:57.428Z,10.33
2018-12-29T12:20:24.578Z,9.97
2018-12-29T12:22:53.694Z,10.07
2018-12-29T12:25:22.794Z,9.90
2018-12-29T12:27:52.494Z,9.67
2018-12-29T12:30:22.115Z,9.77
2018-12-29T12:32:51.460Z,10.37
2018-12-29T12:35:20.811Z,10.00
2018-12-29T12:37:49.893Z,9.57
2018-12-29T12:40:19.169Z,10.23
2018-12-29T12:42:48.279Z,9.83
2018-12-29T12:45:17.468Z,9.50
2018-12-29T12:47:46.658Z,10.17
2018-12-29T12:50:15.782Z,11.23
2018-12-29T12:52:45.129Z,9.90
2018-12-29T12:55:14.229Z,10.07
2018-12-29T12:57:43.503Z,9.67
2018-12-29T13:00:13.019Z,9.80
2018-12-29T13:02:42.147Z,10.13
2018-12-29T13:05:11.580Z,10.50
2018-12-29T13:07:41.234Z,9.47
2018-12-29T13:10:10.383Z,10.20
2018-12-29T13:12:39.531Z,9.23
2018-12-29T13:15:08.730Z,9.43
2018-12-29T13:17:37.852Z,8.73
2018-12-29T13:20:06.990Z,9.47
2018-12-29T13:22:36.428Z,8.73
2018-12-29T13:25:07.525Z,8.03
2018-12-29T13:27:36.863Z,8.90
2018-12-29T13:30:06.314Z,8.87
2018-12-29T13:32:35.687Z,8.17
2018-12-29T13:35:05.384Z,8.40
2018-12-29T13:37:34.809Z,7.70
2018-12-29T13:40:05.612Z,8.03
2018-12-29T13:42:34.953Z,7.90
2018-12-29T13:45:05.652Z,8.27
2018-12-29T13:47:35.356Z,8.03
2018-12-29T13:50:06.846Z,8.10
2018-12-29T13:52:35.938Z,7.83
2018-12-29T13:55:05.514Z,7.20
2018-12-29T13:57:35.222Z,7.60
2018-12-29T14:00:05.977Z,7.13
2018-12-29T14:02:35.077Z,7.67
2018-12-29T14:05:04.224Z,7.27
2018-12-29T14:07:35.257Z,7.67
2018-12-29T14:10:05.635Z,8.83
2018-12-29T14:12:35.129Z,8.80
2018-12-29T14:15:04.447Z,9.17
2018-12-29T14:17:33.573Z,8.33
2018-12-29T14:20:03.119Z,8.73
2018-12-29T14:22:32.242Z,9.13
2018-12-29T14:25:01.707Z,8.43
2018-12-29T14:27:33.655Z,8.90
2018-12-29T14:30:05.006Z,10.30
2018-12-29T14:32:34.120Z,10.23
2018-12-29T14:35:03.267Z,9.60
2018-12-29T14:37:32.450Z,10.20
2018-12-29T14:40:01.683Z,10.77
2018-12-29T14:42:31.093Z,10.07
2018-12-29T14:45:00.210Z,9.93
2018-12-29T14:47:29.329Z,10.00
2018-12-29T14:49:58.468Z,10.67
2018-12-29T14:52:27.887Z,10.70
2018-12-29T14:54:57.087Z,10.20
2018-12-29T14:57:26.230Z,10.60
2018-12-29T14:59:55.317Z,9.93
2018-12-29T15:02:24.663Z,9.17
2018-12-29T15:04:54.005Z,9.03
2018-12-29T15:07:23.191Z,8.40
2018-12-29T15:09:52.596Z,8.50
2018-12-29T15:12:26.821Z,8.90
2018-12-29T15:14:56.643Z,8.90
2018-12-29T15:17:25.792Z,8.53
2018-12-29T15:19:55.476Z,8.70
2018-12-29T15:22:24.847Z,8.63
2018-12-29T15:24:56.577Z,9.27
2018-12-29T15:27:25.674Z,8.53
2018-12-29T15:29:55.041Z,8.90
2018-12-29T15:32:24.808Z,8.97
2018-12-29T15:34:53.932Z,10.00
2018-12-29T15:37:23.307Z,8.33
2018-12-29T15:39:52.673Z,8.43
2018-12-29T15:42:22.136Z,8.53
2018-12-29T15:44:51.761Z,9.13
2018-12-29T15:47:20.877Z,8.90
2018-12-29T15:49:50.764Z,9.27
2018-12-29T15:52:19.912Z,8.70
2018-12-29T15:54:49.420Z,8.10
2018-12-29T15:57:18.587Z,8.77
2018-12-29T15:59:48.569Z,9.27
2018-12-29T16:02:17.997Z,9.57
2018-12-29T16:04:47.469Z,9.40
2018-12-29T16:07:16.662Z,10.03
2018-12-29T16:09:46.112Z,8.30
2018-12-29T16:12:15.972Z,8.27
2018-12-29T16:14:45.884Z,9.17
2018-12-29T16:17:16.224Z,8.90
2018-12-29T16:19:45.669Z,8.67
2018-12-29T16:22:14.832Z,8.80
2018-12-29T16:24:43.886Z,8.80
2018-12-29T16:27:13.533Z,7.97
2018-12-29T16:29:42.755Z,9.10
2018-12-29T16:32:12.123Z,8.90
2018-12-29T16:34:41.255Z,7.73
2018-12-29T16:37:10.671Z,8.23
2018-12-29T16:39:40.195Z,8.37
2018-12-29T16:42:09.281Z,7.90
2018-12-29T16:44:38.400Z,7.70
2018-12-29T16:47:07.575Z,7.87
2018-12-29T16:49:38.527Z,7.73
2018-12-29T16:52:08.033Z,7.93
2018-12-29T16:54:37.555Z,7.87
2018-12-29T16:57:06.892Z,7.40
2018-12-29T16:59:36.559Z,7.13
2018-12-29T17:02:05.722Z,7.20
2018-12-29T17:04:34.823Z,7.53
2018-12-29T17:07:03.972Z,8.13
2018-12-29T17:09:33.519Z,7.90
2018-12-29T17:12:02.600Z,7.97
2018-12-29T17:14:33.266Z,7.57
2018-12-29T17:17:02.645Z,7.47
2018-12-29T17:19:32.106Z,6.33
2018-12-29T17:22:01.837Z,7.37
2018-12-29T17:24:30.927Z,7.10
2018-12-29T17:27:00.360Z,6.93
2018-12-29T17:29:29.700Z,6.80
2018-12-29T17:31:59.070Z,6.80
2018-12-29T17:34:28.662Z,6.33
2018-12-29T17:36:58.303Z,6.70
2018-12-29T17:39:28.232Z,6.37
2018-12-29T17:41:57.890Z,6.63
2018-12-29T17:44:27.185Z,6.23
2018-12-29T17:46:56.532Z,6.03
2018-12-29T17:49:25.610Z,5.90
2018-12-29T17:51:55.105Z,6.10
2018-12-29T17:54:24.472Z,5.77
2018-12-29T17:56:53.838Z,6.40
2018-12-29T17:59:22.929Z,6.33
2018-12-29T18:01:52.603Z,5.83
2018-12-29T18:04:21.977Z,6.20
2018-12-29T18:06:51.410Z,6.30
2018-12-29T18:09:20.503Z,5.93
2018-12-29T18:11:49.942Z,6.50
2018-12-29T18:14:19.127Z,5.90
2018-12-29T18:16:48.359Z,5.57
2018-12-29T18:19:18.068Z,6.33
2018-12-29T18:21:47.271Z,5.87
2018-12-29T18:24:16.659Z,6.17
2018-12-29T18:26:45.798Z,7.23
2018-12-29T18:29:14.925Z,5.93
2018-12-29T18:31:44.282Z,5.90
2018-12-29T18:34:13.373Z,5.90
2018-12-29T18:36:42.764Z,5.90
2018-12-29T18:39:11.846Z,6.10
2018-12-29T18:41:41.210Z,5.90
2018-12-29T18:44:11.203Z,6.17
2018-12-29T18:46:40.287Z,5.40
2018-12-29T18:49:09.387Z,6.40
2018-12-29T18:51:38.751Z,6.30
2018-12-29T18:54:07.833Z,6.07
2018-12-29T18:56:36.937Z,5.97
2018-12-29T18:59:06.347Z,5.90
2018-12-29T19:01:35.388Z,6.67
2018-12-29T19:04:04.478Z,6.93
2018-12-29T19:06:33.857Z,8.03
2018-12-29T19:09:04.278Z,7.43
2018-12-29T19:11:34.016Z,7.50
2018-12-29T19:14:03.514Z,6.83
2018-12-29T19:16:32.605Z,6.97
2018-12-29T19:19:01.715Z,7.60
2018-12-29T19:21:30.803Z,7.60
2018-12-29T19:24:00.223Z,7.43
2018-12-29T19:26:29.807Z,7.67
2018-12-29T19:28:59.145Z,8.20
2018-12-29T19:31:28.290Z,8.50
2018-12-29T19:33:57.997Z,7.87
2018-12-29T19:36:27.073Z,7.13
2018-12-29T19:38:56.295Z,7.53
2018-12-29T19:41:25.481Z,8.10
2018-12-29T19:43:55.035Z,7.70
2018-12-29T19:46:24.641Z,7.73
2018-12-29T19:48:53.835Z,7.70
2018-12-29T19:51:55.878Z,7.30
2018-12-29T19:54:25.541Z,7.50
2018-12-29T19:56:55.078Z,7.33
2018-12-29T19:59:24.724Z,7.27
2018-12-29T20:01:53.850Z,8.00
2018-12-29T20:04:23.892Z,6.47
2018-12-29T20:06:53.631Z,6.43
2018-12-29T20:09:22.998Z,6.43
2018-12-29T20:11:52.085Z,6.73
2018-12-29T20:14:21.480Z,7.13
2018-12-29T20:16:51.323Z,6.17
2018-12-29T20:19:20.454Z,6.43
2018-12-29T20:21:49.558Z,6.83
2018-12-29T20:24:19.986Z,6.83
2018-12-29T20:26:49.105Z,6.23
2018-12-29T20:29:18.259Z,6.53
2018-12-29T20:31:47.627Z,6.47
2018-12-29T20:34:17.053Z,6.47
2018-12-29T20:36:46.542Z,7.10
2018-12-29T20:39:15.964Z,6.33
2018-12-29T20:41:45.310Z,6.17
2018-12-29T20:44:14.404Z,6.20
2018-12-29T20:46:43.501Z,6.33
2018-12-29T20:49:12.643Z,6.30
2018-12-29T20:51:41.762Z,6.10
2018-12-29T20:54:10.930Z,6.87
2018-12-29T20:56:40.024Z,6.47
2018-12-29T20:59:09.532Z,6.10
2018-12-29T21:01:38.626Z,5.47
2018-12-29T21:04:08.027Z,5.10
2018-12-29T21:06:37.197Z,5.00
2018-12-29T21:09:08.711Z,5.63
2018-12-29T21:11:38.097Z,4.60
2018-12-29T21:14:07.223Z,5.33
2018-12-29T21:16:36.882Z,5.23
2018-12-29T21:19:05.975Z,5.30
2018-12-29T21:21:35.645Z,4.90
2018-12-29T21:24:12.042Z,4.90
2018-12-29T21:26:35.908Z,4.37
2018-12-29T21:29:05.509Z,4.20
2018-12-29T21:31:34.908Z,4.10
2018-12-29T21:34:04.458Z,3.70
2018-12-29T21:36:33.621Z,3.57
2018-12-29T21:39:04.352Z,3.63
2018-12-29T21:41:33.725Z,4.13
2018-12-29T21:44:02.857Z,3.80
2018-12-29T21:46:31.972Z,3.57
2018-12-29T21:49:01.416Z,3.83
2018-12-29T21:51:30.578Z,3.33
2018-12-29T21:53:59.793Z,3.73
2018-12-29T21:56:28.882Z,3.50
2018-12-29T21:58:57.970Z,3.63
2018-12-29T22:01:27.347Z,3.70
2018-12-29T22:03:56.431Z,4.00
2018-12-29T22:06:25.644Z,3.60
2018-12-29T22:08:54.742Z,3.53
2018-12-29T22:11:24.104Z,4.37
2018-12-29T22:13:53.202Z,4.17
2018-12-29T22:16:22.298Z,3.50
2018-12-29T22:18:51.750Z,3.33
2018-12-29T22:21:21.321Z,3.93
2018-12-29T22:23:50.708Z,5.03
2018-12-29T22:26:20.113Z,4.37
2018-12-29T22:28:49.254Z,4.50
2018-12-29T22:31:18.341Z,5.00
2018-12-29T22:33:48.053Z,4.67
2018-12-29T22:36:17.162Z,4.90
2018-12-29T22:38:46.617Z,3.47
2018-12-29T22:41:16.311Z,3.17
2018-12-29T22:43:45.390Z,3.40
2018-12-29T22:46:15.167Z,3.83
2018-12-29T22:48:44.253Z,3.70
2018-12-29T22:51:13.390Z,3.33
2018-12-29T22:53:45.799Z,3.20
2018-12-29T22:56:15.068Z,3.90
2018-12-29T22:58:44.478Z,4.33
2018-12-29T23:01:13.598Z,4.60
2018-12-29T23:03:42.701Z,4.07
2018-12-29T23:06:11.855Z,4.07
2018-12-29T23:08:41.297Z,4.23
2018-12-29T23:11:11.065Z,4.00
2018-12-29T23:13:41.481Z,3.70
2018-12-29T23:16:10.823Z,4.33
2018-12-29T23:18:40.397Z,4.03
2018-12-29T23:21:09.758Z,4.00
2018-12-29T23:23:39.133Z,4.00
2018-12-29T23:26:08.243Z,4.77
2018-12-29T23:28:37.656Z,4.10
2018-12-29T23:31:07.118Z,4.50
2018-12-29T23:33:36.334Z,5.00
2018-12-29T23:36:06.018Z,4.13
2018-12-29T23:38:35.118Z,3.77
2018-12-29T23:41:04.390Z,4.97
2018-12-29T23:43:33.593Z,4.20
2018-12-29T23:46:02.678Z,4.33
2018-12-29T23:48:31.853Z,4.93
2018-12-29T23:51:05.622Z,4.57
2018-12-29T23:53:32.133Z,4.40
2018-12-29T23:56:01.768Z,4.90
2018-12-29T23:58:31.160Z,5.07
